Time;durP1;ratioP1;P1;durP2;ratioP2;P2;SDS_P1;SDS_P2;PMS_P1;PMS_P2;Temp;Humidity;BMP_temperature;BMP_pressure;BME280_temperature;BME280_humidity;BME280_pressure;Samples;Min_cycle;Max_cycle;Signal;HPM_P1;HPM_P2
2021/07/09 00:02:10;;;;;;;14.00;7.32;;;;;;;;;;5020785;28;20126;-44
2021/07/09 00:04:38;;;;;;;8.85;6.93;;;;;;;;;;5020748;28;20307;-43
2021/07/09 00:07:04;;;;;;;9.73;6.90;;;;;;;;;;5020312;28;20473;-43
2021/07/09 00:09:30;;;;;;;9.48;7.15;;;;;;;;;;5021607;28;20035;-43
2021/07/09 00:11:56;;;;;;;8.93;6.63;;;;;;;;;;5020979;28;20025;-42
2021/07/09 00:14:24;;;;;;;10.43;6.68;;;;;;;;;;5019003;28;20041;-43
2021/07/09 00:16:50;;;;;;;10.18;6.82;;;;;;;;;;5020760;28;20026;-44
2021/07/09 00:19:16;;;;;;;8.82;6.45;;;;;;;;;;5020588;28;20362;-43
2021/07/09 00:21:42;;;;;;;9.93;6.78;;;;;;;;;;5020470;28;20022;-42
2021/07/09 00:24:09;;;;;;;9.13;6.72;;;;;;;;;;5024052;28;20022;-42
2021/07/09 00:26:36;;;;;;;11.57;7.07;;;;;;;;;;5024411;28;20453;-42
2021/07/09 00:29:03;;;;;;;8.82;6.68;;;;;;;;;;5024289;28;20381;-42
2021/07/09 00:31:30;;;;;;;8.30;6.47;;;;;;;;;;5025257;28;20558;-43
2021/07/09 00:33:56;;;;;;;9.57;6.63;;;;;;;;;;5023961;28;20571;-42
2021/07/09 00:36:23;;;;;;;10.23;7.20;;;;;;;;;;5024146;28;20087;-42
2021/07/09 00:38:49;;;;;;;9.57;6.80;;;;;;;;;;5023962;28;20033;-42
2021/07/09 00:41:15;;;;;;;13.85;6.60;;;;;;;;;;5024206;28;20029;-41
2021/07/09 00:43:41;;;;;;;10.23;7.07;;;;;;;;;;5023878;28;20029;-42
2021/07/09 00:46:07;;;;;;;9.55;7.35;;;;;;;;;;5023642;28;20104;-41
2021/07/09 00:48:34;;;;;;;14.13;8.55;;;;;;;;;;5024108;28;20025;-43
2021/07/09 00:51:01;;;;;;;11.82;7.30;;;;;;;;;;5023831;28;20139;-42
2021/07/09 00:53:27;;;;;;;9.77;7.25;;;;;;;;;;5034422;28;20048;-42
2021/07/09 00:55:53;;;;;;;11.73;7.90;;;;;;;;;;5023637;28;20103;-42
2021/07/09 00:58:20;;;;;;;10.27;7.57;;;;;;;;;;5023465;28;20017;-42
2021/07/09 01:00:46;;;;;;;11.77;7.88;;;;;;;;;;5023812;28;20037;-42
2021/07/09 01:03:13;;;;;;;10.60;7.63;;;;;;;;;;5023712;28;20536;-42
2021/07/09 01:05:39;;;;;;;11.02;7.65;;;;;;;;;;5023640;28;20058;-42
2021/07/09 01:08:05;;;;;;;8.95;7.25;;;;;;;;;;5023230;28;20470;-42
2021/07/09 01:10:32;;;;;;;11.25;7.15;;;;;;;;;;5024547;28;20026;-43
2021/07/09 01:12:58;;;;;;;17.10;7.57;;;;;;;;;;5023546;28;20033;-42
2021/07/09 01:15:25;;;;;;;13.88;8.23;;;;;;;;;;5024330;28;20408;-41
2021/07/09 01:17:51;;;;;;;12.32;7.72;;;;;;;;;;5023286;28;20832;-42
2021/07/09 01:20:18;;;;;;;11.05;7.32;;;;;;;;;;5023313;28;20032;-42
2021/07/09 01:22:45;;;;;;;11.98;7.13;;;;;;;;;;5023235;28;20028;-42
2021/07/09 01:25:21;;;;;;;10.23;7.03;;;;;;;;;;5023312;28;20485;-41
2021/07/09 01:27:49;;;;;;;15.07;7.53;;;;;;;;;;5023004;28;20489;-42
2021/07/09 01:30:19;;;;;;;14.75;6.85;;;;;;;;;;5022928;28;20155;-42
2021/07/09 01:32:45;;;;;;;10.05;7.78;;;;;;;;;;5023192;28;20026;-42
2021/07/09 01:35:14;;;;;;;7.05;6.35;;;;;;;;;;5022076;28;20033;-41
2021/07/09 01:37:41;;;;;;;11.90;6.70;;;;;;;;;;5023869;28;20021;-42
2021/07/09 01:40:08;;;;;;;11.88;7.07;;;;;;;;;;5022818;28;20033;-42
2021/07/09 01:42:35;;;;;;;8.80;6.38;;;;;;;;;;5022689;28;20079;-41
2021/07/09 01:45:01;;;;;;;9.43;6.18;;;;;;;;;;5022711;28;20033;-42
2021/07/09 01:47:27;;;;;;;8.82;6.38;;;;;;;;;;5022721;28;20036;-42
2021/07/09 01:49:53;;;;;;;10.13;6.13;;;;;;;;;;5022618;28;20025;-41
2021/07/09 01:52:19;;;;;;;8.98;6.93;;;;;;;;;;5022535;28;20029;-41
2021/07/09 01:54:46;;;;;;;10.40;6.80;;;;;;;;;;5023803;28;20026;-41
2021/07/09 01:57:14;;;;;;;8.85;6.47;;;;;;;;;;5022494;28;20021;-42
2021/07/09 01:59:41;;;;;;;13.43;6.85;;;;;;;;;;5024057;28;20059;-42
2021/07/09 02:02:07;;;;;;;8.77;6.35;;;;;;;;;;5022568;28;20061;-42
2021/07/09 02:04:33;;;;;;;9.25;6.05;;;;;;;;;;5022490;28;20029;-42
2021/07/09 02:06:59;;;;;;;8.57;6.63;;;;;;;;;;5022473;28;20430;-42
2021/07/09 02:09:25;;;;;;;11.07;6.68;;;;;;;;;;5022379;28;20048;-42
2021/07/09 02:11:52;;;;;;;10.07;6.80;;;;;;;;;;5022455;28;20328;-42
2021/07/09 02:14:18;;;;;;;14.18;6.32;;;;;;;;;;5021910;28;20029;-41
2021/07/09 02:16:44;;;;;;;13.77;6.75;;;;;;;;;;5023687;28;20599;-42
2021/07/09 02:19:11;;;;;;;11.98;7.07;;;;;;;;;;5021996;28;20119;-41
2021/07/09 02:21:38;;;;;;;8.43;6.68;;;;;;;;;;5023301;28;20028;-42
2021/07/09 02:24:04;;;;;;;13.35;6.20;;;;;;;;;;5022201;28;20399;-42
2021/07/09 02:26:30;;;;;;;11.52;6.47;;;;;;;;;;5022223;28;20028;-41
2021/07/09 02:28:56;;;;;;;10.68;6.38;;;;;;;;;;5022079;28;20139;-41
2021/07/09 02:31:24;;;;;;;11.68;6.47;;;;;;;;;;5039633;28;20088;-42
2021/07/09 02:33:50;;;;;;;8.75;6.00;;;;;;;;;;5074479;28;20055;-43
2021/07/09 02:36:16;;;;;;;8.77;5.80;;;;;;;;;;5074809;28;20368;-42
2021/07/09 02:38:44;;;;;;;10.20;6.03;;;;;;;;;;5074213;28;20044;-42
2021/07/09 02:41:11;;;;;;;10.15;5.65;;;;;;;;;;5074445;28;20149;-44
2021/07/09 02:43:37;;;;;;;9.27;5.80;;;;;;;;;;5074785;28;20027;-42
2021/07/09 02:46:03;;;;;;;10.25;6.47;;;;;;;;;;5074185;28;20108;-43
2021/07/09 02:48:29;;;;;;;10.30;5.93;;;;;;;;;;5074173;28;20031;-43
2021/07/09 02:50:55;;;;;;;9.55;5.72;;;;;;;;;;5074073;28;20028;-43
2021/07/09 02:53:23;;;;;;;10.60;5.70;;;;;;;;;;5073876;28;20473;-43
2021/07/09 02:55:49;;;;;;;14.15;5.68;;;;;;;;;;5073995;28;20039;-43
2021/07/09 02:58:15;;;;;;;10.60;5.70;;;;;;;;;;5073962;28;20108;-44
2021/07/09 03:00:41;;;;;;;9.82;5.78;;;;;;;;;;5072442;28;20462;-43
2021/07/09 03:03:07;;;;;;;5.80;5.15;;;;;;;;;;5073850;28;20070;-45
2021/07/09 03:05:33;;;;;;;10.88;5.07;;;;;;;;;;5073787;28;20028;-44
2021/07/09 03:07:59;;;;;;;10.80;5.50;;;;;;;;;;5073818;28;20096;-43
2021/07/09 03:10:26;;;;;;;10.63;5.47;;;;;;;;;;5073841;28;20102;-44
2021/07/09 03:12:52;;;;;;;10.30;5.55;;;;;;;;;;5073856;28;20025;-44
2021/07/09 03:15:18;;;;;;;6.03;4.75;;;;;;;;;;5073305;28;20374;-44
2021/07/09 03:17:44;;;;;;;8.40;4.93;;;;;;;;;;5073875;28;20111;-43
2021/07/09 03:20:11;;;;;;;13.48;4.80;;;;;;;;;;5073728;28;20040;-43
2021/07/09 03:22:37;;;;;;;6.68;4.85;;;;;;;;;;5073452;28;20028;-43
2021/07/09 03:25:08;;;;;;;6.28;4.72;;;;;;;;;;5073481;28;20024;-44
2021/07/09 03:27:34;;;;;;;7.18;4.25;;;;;;;;;;5073455;28;20401;-45
2021/07/09 03:30:00;;;;;;;7.03;4.40;;;;;;;;;;5073712;28;20028;-44
2021/07/09 03:32:26;;;;;;;8.68;4.45;;;;;;;;;;5073405;28;20021;-44
2021/07/09 03:34:52;;;;;;;10.90;4.20;;;;;;;;;;5073514;28;20481;-43
2021/07/09 03:37:19;;;;;;;6.40;4.15;;;;;;;;;;5073499;28;20024;-42
2021/07/09 03:39:45;;;;;;;7.50;4.18;;;;;;;;;;5073260;28;20093;-43
2021/07/09 03:42:11;;;;;;;6.18;3.65;;;;;;;;;;5073366;28;20468;-42
2021/07/09 03:44:37;;;;;;;12.00;4.03;;;;;;;;;;5073383;28;20082;-43
2021/07/09 03:47:03;;;;;;;8.90;3.70;;;;;;;;;;5073386;28;20032;-42
2021/07/09 03:49:29;;;;;;;5.28;3.78;;;;;;;;;;5073347;28;20059;-44
2021/07/09 03:51:55;;;;;;;6.40;3.90;;;;;;;;;;5073154;28;20027;-45
2021/07/09 03:54:21;;;;;;;8.77;3.72;;;;;;;;;;5073249;28;20059;-42
2021/07/09 03:56:47;;;;;;;5.30;4.35;;;;;;;;;;5073151;28;20016;-42
2021/07/09 03:59:13;;;;;;;7.35;3.38;;;;;;;;;;5077288;28;20036;-43
2021/07/09 04:01:39;;;;;;;7.93;3.70;;;;;;;;;;5077447;28;20453;-43
2021/07/09 04:04:05;;;;;;;7.88;2.85;;;;;;;;;;5077321;28;20033;-43
2021/07/09 04:06:32;;;;;;;10.30;3.70;;;;;;;;;;5077628;28;20104;-42
2021/07/09 04:08:58;;;;;;;8.30;4.05;;;;;;;;;;5077341;28;20027;-42
2021/07/09 04:11:24;;;;;;;5.68;3.15;;;;;;;;;;5077151;28;20028;-42
2021/07/09 04:13:50;;;;;;;6.90;3.33;;;;;;;;;;5077007;28;20024;-43
2021/07/09 04:16:16;;;;;;;5.47;3.90;;;;;;;;;;5076762;28;20052;-42
2021/07/09 04:18:44;;;;;;;5.43;3.55;;;;;;;;;;5076918;28;20487;-42
2021/07/09 04:21:10;;;;;;;5.00;3.13;;;;;;;;;;5077002;28;20031;-43
2021/07/09 04:23:37;;;;;;;8.30;3.13;;;;;;;;;;5077003;28;20025;-42
2021/07/09 04:26:03;;;;;;;5.70;3.00;;;;;;;;;;5076794;28;20024;-42
2021/07/09 04:28:29;;;;;;;5.32;3.60;;;;;;;;;;5077058;28;20036;-42
2021/07/09 04:30:55;;;;;;;4.70;3.25;;;;;;;;;;5076717;28;20032;-42
2021/07/09 04:33:22;;;;;;;32.05;4.68;;;;;;;;;;5076680;28;20461;-42
2021/07/09 04:35:48;;;;;;;6.38;3.42;;;;;;;;;;5076735;28;20100;-44
2021/07/09 04:38:14;;;;;;;7.50;3.05;;;;;;;;;;5076748;28;20028;-42
2021/07/09 04:40:40;;;;;;;9.45;3.40;;;;;;;;;;5076721;28;20032;-43
2021/07/09 04:43:06;;;;;;;9.07;3.38;;;;;;;;;;5076661;28;20027;-42
2021/07/09 04:45:32;;;;;;;5.95;2.80;;;;;;;;;;5076845;28;20037;-42
2021/07/09 04:47:59;;;;;;;5.95;3.50;;;;;;;;;;5076465;28;20066;-42
2021/07/09 04:50:25;;;;;;;3.40;2.97;;;;;;;;;;5076584;28;20047;-43
2021/07/09 04:52:51;;;;;;;7.72;3.33;;;;;;;;;;5076669;28;20017;-43
2021/07/09 04:55:17;;;;;;;3.28;2.92;;;;;;;;;;5076635;28;20047;-43
2021/07/09 04:57:44;;;;;;;7.63;2.97;;;;;;;;;;5076395;28;20024;-43
2021/07/09 05:00:10;;;;;;;7.90;3.55;;;;;;;;;;5076195;28;20396;-43
2021/07/09 05:02:37;;;;;;;4.93;2.90;;;;;;;;;;5076147;28;20020;-42
2021/07/09 05:05:04;;;;;;;7.35;3.33;;;;;;;;;;5076441;28;20095;-43
2021/07/09 05:07:30;;;;;;;6.88;3.00;;;;;;;;;;5076064;28;20534;-43
2021/07/09 05:09:58;;;;;;;5.43;3.10;;;;;;;;;;5075951;28;20033;-43
2021/07/09 05:12:24;;;;;;;7.07;3.00;;;;;;;;;;5076029;28;20025;-42
2021/07/09 05:14:51;;;;;;;7.60;3.28;;;;;;;;;;5075694;28;20049;-43
2021/07/09 05:17:17;;;;;;;5.43;3.00;;;;;;;;;;5074960;28;20451;-43
2021/07/09 05:19:43;;;;;;;5.38;2.95;;;;;;;;;;5075967;28;20111;-45
2021/07/09 05:22:10;;;;;;;6.20;3.28;;;;;;;;;;5075883;28;20024;-44
2021/07/09 05:24:37;;;;;;;3.78;3.10;;;;;;;;;;5075861;28;20032;-42
2021/07/09 05:27:03;;;;;;;6.65;3.40;;;;;;;;;;5075634;28;20025;-43
2021/07/09 05:29:29;;;;;;;8.13;3.05;;;;;;;;;;5075756;28;20063;-43
2021/07/09 05:31:55;;;;;;;8.65;3.00;;;;;;;;;;5075783;28;20039;-44
2021/07/09 05:34:21;;;;;;;6.35;3.28;;;;;;;;;;5075833;28;20024;-44
2021/07/09 05:36:48;;;;;;;7.35;3.08;;;;;;;;;;5075765;28;20150;-43
2021/07/09 05:39:15;;;;;;;3.45;2.90;;;;;;;;;;5075351;28;20089;-42
2021/07/09 05:41:42;;;;;;;12.60;3.40;;;;;;;;;;5075506;28;20106;-42
2021/07/09 05:44:09;;;;;;;6.53;3.08;;;;;;;;;;5075564;28;20134;-43
2021/07/09 05:46:35;;;;;;;4.57;3.17;;;;;;;;;;5075274;28;20173;-43
2021/07/09 05:49:01;;;;;;;7.18;3.17;;;;;;;;;;5075531;28;20385;-42
2021/07/09 05:51:27;;;;;;;9.60;3.20;;;;;;;;;;5075357;28;20025;-43
2021/07/09 05:53:53;;;;;;;14.40;3.03;;;;;;;;;;5075230;28;20020;-42
2021/07/09 05:56:19;;;;;;;6.10;2.90;;;;;;;;;;5075050;28;20020;-42
2021/07/09 05:58:45;;;;;;;10.55;3.00;;;;;;;;;;5075093;28;20059;-43
2021/07/09 06:01:11;;;;;;;4.07;2.58;;;;;;;;;;5074992;28;20021;-42
2021/07/09 06:03:38;;;;;;;6.55;2.92;;;;;;;;;;5074601;28;20500;-42
2021/07/09 06:06:04;;;;;;;6.28;3.22;;;;;;;;;;5053724;28;20053;-43
2021/07/09 06:08:30;;;;;;;7.88;2.85;;;;;;;;;;5054950;28;20446;-42
2021/07/09 06:10:57;;;;;;;5.05;3.00;;;;;;;;;;5054864;28;20025;-42
2021/07/09 06:13:23;;;;;;;6.10;2.97;;;;;;;;;;5054801;28;20017;-43
2021/07/09 06:15:49;;;;;;;3.70;3.10;;;;;;;;;;5054557;28;20059;-43
2021/07/09 06:18:15;;;;;;;8.82;3.13;;;;;;;;;;5054948;28;20025;-42
2021/07/09 06:20:41;;;;;;;9.10;3.60;;;;;;;;;;5054160;28;20489;-42
2021/07/09 06:23:07;;;;;;;5.47;3.03;;;;;;;;;;5054640;28;20029;-42
2021/07/09 06:25:34;;;;;;;7.45;3.25;;;;;;;;;;5054490;28;20021;-42
2021/07/09 06:28:00;;;;;;;7.88;3.47;;;;;;;;;;5054675;28;20056;-42
2021/07/09 06:30:26;;;;;;;5.72;3.58;;;;;;;;;;5054514;28;20025;-43
2021/07/09 06:32:52;;;;;;;9.52;3.20;;;;;;;;;;5054337;28;20469;-43
2021/07/09 06:35:18;;;;;;;8.15;3.42;;;;;;;;;;5053358;28;20033;-42
2021/07/09 06:37:44;;;;;;;10.77;3.90;;;;;;;;;;5054335;28;20025;-43
2021/07/09 06:40:11;;;;;;;13.98;3.08;;;;;;;;;;5052940;28;20524;-43
2021/07/09 06:42:40;;;;;;;6.53;3.10;;;;;;;;;;5054458;28;20025;-43
2021/07/09 06:45:06;;;;;;;6.15;3.05;;;;;;;;;;5054486;28;20039;-43
2021/07/09 06:47:32;;;;;;;7.18;3.42;;;;;;;;;;5054168;28;20064;-43
2021/07/09 06:49:58;;;;;;;9.40;3.40;;;;;;;;;;5054252;28;20025;-43
2021/07/09 06:52:24;;;;;;;12.02;3.65;;;;;;;;;;5054489;28;20487;-43
2021/07/09 06:54:50;;;;;;;6.05;3.22;;;;;;;;;;5054168;28;20028;-43
2021/07/09 06:57:17;;;;;;;9.00;3.30;;;;;;;;;;5054117;28;20017;-43
2021/07/09 06:59:44;;;;;;;5.03;2.90;;;;;;;;;;5053946;28;20029;-42
2021/07/09 07:02:11;;;;;;;8.32;2.75;;;;;;;;;;5053908;28;20021;-43
2021/07/09 07:04:38;;;;;;;5.95;3.22;;;;;;;;;;5053859;28;20086;-43
2021/07/09 07:07:04;;;;;;;6.68;3.13;;;;;;;;;;5054014;28;20028;-42
2021/07/09 07:09:32;;;;;;;7.30;3.08;;;;;;;;;;5053702;28;20025;-43
2021/07/09 07:12:02;;;;;;;6.03;3.38;;;;;;;;;;5053905;28;20071;-42
2021/07/09 07:14:28;;;;;;;13.90;3.03;;;;;;;;;;5053482;28;20055;-43
2021/07/09 07:16:54;;;;;;;8.30;2.80;;;;;;;;;;5053646;28;20481;-43
2021/07/09 07:19:20;;;;;;;17.10;3.67;;;;;;;;;;5053727;28;20389;-42
2021/07/09 07:21:47;;;;;;;7.25;3.63;;;;;;;;;;5053776;28;20044;-43
2021/07/09 07:24:13;;;;;;;6.20;3.10;;;;;;;;;;5053458;28;20039;-43
2021/07/09 07:26:39;;;;;;;7.35;3.08;;;;;;;;;;5053801;28;20493;-42
2021/07/09 07:29:05;;;;;;;5.13;3.15;;;;;;;;;;5053538;28;20079;-43
2021/07/09 07:31:31;;;;;;;9.32;2.88;;;;;;;;;;5053034;28;20079;-42
2021/07/09 07:33:57;;;;;;;10.10;3.03;;;;;;;;;;5053142;28;20028;-42
2021/07/09 07:36:23;;;;;;;8.00;3.08;;;;;;;;;;5053554;28;20089;-42
2021/07/09 07:38:49;;;;;;;7.47;3.50;;;;;;;;;;5053221;28;20025;-42
2021/07/09 07:41:16;;;;;;;8.60;2.95;;;;;;;;;;5046896;28;20044;-41
2021/07/09 07:43:43;;;;;;;6.38;2.90;;;;;;;;;;5035463;28;20022;-43
2021/07/09 07:46:09;;;;;;;6.97;3.00;;;;;;;;;;5033127;28;20036;-42
2021/07/09 07:48:36;;;;;;;10.52;3.35;;;;;;;;;;5033275;28;20084;-43
2021/07/09 07:51:02;;;;;;;8.20;2.97;;;;;;;;;;5033454;28;20021;-42
2021/07/09 07:53:28;;;;;;;9.63;3.08;;;;;;;;;;5033327;28;20103;-42
2021/07/09 07:55:54;;;;;;;11.10;3.90;;;;;;;;;;5032341;28;20027;-43
2021/07/09 07:58:20;;;;;;;7.70;3.33;;;;;;;;;;5033430;28;20030;-42
2021/07/09 08:00:46;;;;;;;8.27;3.28;;;;;;;;;;5034021;28;20061;-42
2021/07/09 08:03:12;;;;;;;7.63;3.25;;;;;;;;;;5052147;28;20036;-44
2021/07/09 08:05:38;;;;;;;5.95;3.63;;;;;;;;;;5040484;28;20033;-43
2021/07/09 08:08:08;;;;;;;10.25;4.05;;;;;;;;;;5050571;28;20033;-42
2021/07/09 08:10:34;;;;;;;8.63;3.38;;;;;;;;;;5051429;28;20021;-44
2021/07/09 08:13:00;;;;;;;16.13;7.88;;;;;;;;;;5043995;28;20021;-41
2021/07/09 08:15:26;;;;;;;11.63;4.53;;;;;;;;;;5032848;28;20052;-43
2021/07/09 08:17:52;;;;;;;12.32;4.35;;;;;;;;;;5032923;28;20127;-43
2021/07/09 08:20:18;;;;;;;10.75;3.65;;;;;;;;;;5033044;28;20033;-42
2021/07/09 08:22:44;;;;;;;9.55;3.47;;;;;;;;;;5035632;28;20028;-41
2021/07/09 08:25:11;;;;;;;16.52;4.05;;;;;;;;;;5041560;28;20159;-44
2021/07/09 08:27:40;;;;;;;8.57;3.42;;;;;;;;;;5032944;28;20064;-42
2021/07/09 08:30:07;;;;;;;7.53;3.60;;;;;;;;;;5033041;28;20029;-41
2021/07/09 08:32:33;;;;;;;11.05;6.10;;;;;;;;;;5035117;28;20024;-42
2021/07/09 08:35:00;;;;;;;6.70;3.88;;;;;;;;;;5041578;28;20116;-42
2021/07/09 08:37:26;;;;;;;8.27;4.43;;;;;;;;;;5038034;28;20029;-43
2021/07/09 08:39:52;;;;;;;11.73;4.18;;;;;;;;;;5038904;28;20124;-43
2021/07/09 08:42:18;;;;;;;10.23;3.50;;;;;;;;;;5033112;28;20101;-42
2021/07/09 08:44:44;;;;;;;11.25;3.30;;;;;;;;;;5041394;28;20489;-43
2021/07/09 08:47:12;;;;;;;9.85;3.72;;;;;;;;;;5057027;28;20030;-43
2021/07/09 08:49:40;;;;;;;9.68;3.95;;;;;;;;;;5056687;28;20376;-44
2021/07/09 08:52:07;;;;;;;5.32;3.63;;;;;;;;;;5056576;28;20025;-43
2021/07/09 08:54:33;;;;;;;7.18;3.45;;;;;;;;;;5056517;28;20025;-43
2021/07/09 08:56:59;;;;;;;8.82;3.58;;;;;;;;;;5056494;28;20064;-43
2021/07/09 08:59:25;;;;;;;8.15;3.22;;;;;;;;;;5056352;28;20033;-43
2021/07/09 09:01:58;;;;;;;8.18;3.38;;;;;;;;;;5056154;28;20495;-42
2021/07/09 09:04:28;;;;;;;7.63;4.05;;;;;;;;;;5056487;28;20047;-43
2021/07/09 09:07:02;;;;;;;11.75;3.50;;;;;;;;;;5056293;28;20077;-43
2021/07/09 09:09:28;;;;;;;8.25;3.50;;;;;;;;;;5056406;28;20464;-43
2021/07/09 09:12:06;;;;;;;6.07;3.75;;;;;;;;;;5056138;28;20060;-43
2021/07/09 09:14:39;;;;;;;13.93;3.92;;;;;;;;;;5055893;28;20052;-43
2021/07/09 09:17:26;;;;;;;6.63;3.45;;;;;;;;;;5056044;28;20160;-43
2021/07/09 09:20:07;;;;;;;14.20;3.33;;;;;;;;;;5055923;28;20032;-43
2021/07/09 09:22:39;;;;;;;7.32;3.63;;;;;;;;;;5056309;28;20469;-43
2021/07/09 09:25:06;;;;;;;6.40;4.40;;;;;;;;;;5055619;28;20032;-43
2021/07/09 09:27:32;;;;;;;10.52;3.60;;;;;;;;;;5055884;28;20422;-44
2021/07/09 09:30:10;;;;;;;5.93;3.42;;;;;;;;;;5055640;28;20096;-43
2021/07/09 09:32:45;;;;;;;7.85;3.38;;;;;;;;;;5055562;28;20489;-43
2021/07/09 09:35:11;;;;;;;15.02;3.90;;;;;;;;;;5055690;28;20017;-43
2021/07/09 09:37:40;;;;;;;10.23;3.47;;;;;;;;;;5055406;28;20032;-44
2021/07/09 09:40:16;;;;;;;8.13;3.60;;;;;;;;;;5055271;28;20037;-43
2021/07/09 09:42:43;;;;;;;8.32;3.72;;;;;;;;;;5055516;28;20032;-43
2021/07/09 09:45:09;;;;;;;8.02;3.72;;;;;;;;;;5055787;28;20037;-41
2021/07/09 09:47:36;;;;;;;8.00;3.85;;;;;;;;;;5055321;28;20068;-41
2021/07/09 09:50:10;;;;;;;6.90;3.47;;;;;;;;;;5055237;28;20020;-44
2021/07/09 09:52:40;;;;;;;7.32;3.20;;;;;;;;;;5055443;28;20372;-42
2021/07/09 09:55:06;;;;;;;;;;;;;;;;;;5054820;28;20079;-42
2021/07/09 09:57:33;;;;;;;9.57;4.05;;;;;;;;;;5055560;28;20275;-42
2021/07/09 09:59:59;;;;;;;8.80;3.53;;;;;;;;;;5054960;28;20025;-42
2021/07/09 10:02:25;;;;;;;6.93;3.38;;;;;;;;;;5055093;28;20025;-42
2021/07/09 10:04:54;;;;;;;9.20;3.60;;;;;;;;;;5054984;28;20032;-42
2021/07/09 10:07:21;;;;;;;8.02;3.15;;;;;;;;;;5055240;28;20025;-42
2021/07/09 10:09:47;;;;;;;5.53;4.00;;;;;;;;;;5054788;28;20017;-42
2021/07/09 10:12:19;;;;;;;7.57;3.30;;;;;;;;;;5054913;28;20033;-42
2021/07/09 10:14:45;;;;;;;10.05;3.65;;;;;;;;;;5054886;28;20049;-44
2021/07/09 10:17:14;;;;;;;7.25;3.88;;;;;;;;;;5054732;28;20025;-42
2021/07/09 10:19:41;;;;;;;8.02;3.55;;;;;;;;;;5054909;28;20040;-43
2021/07/09 10:22:08;;;;;;;5.55;3.65;;;;;;;;;;5055169;28;20100;-42
2021/07/09 10:24:35;;;;;;;8.18;3.45;;;;;;;;;;5054750;28;20424;-42
2021/07/09 10:27:01;;;;;;;11.85;3.50;;;;;;;;;;5053438;28;20029;-42
2021/07/09 10:29:31;;;;;;;5.43;3.78;;;;;;;;;;5054510;28;20078;-42
2021/07/09 10:32:01;;;;;;;4.20;3.00;;;;;;;;;;5055077;28;20032;-42
2021/07/09 10:34:32;;;;;;;4.00;3.40;;;;;;;;;;5054345;28;20428;-42
2021/07/09 10:37:00;;;;;;;;;;;;;;;;;;5054896;28;20753;-42
2021/07/09 10:39:31;;;;;;;10.55;3.75;;;;;;;;;;5054287;28;20372;-42
2021/07/09 10:42:12;;;;;;;14.73;3.47;;;;;;;;;;5054331;28;20021;-42
2021/07/09 10:44:38;;;;;;;15.45;3.70;;;;;;;;;;5054259;28;20025;-42
2021/07/09 10:47:16;;;;;;;6.60;3.50;;;;;;;;;;5054354;28;20473;-42
2021/07/09 10:49:52;;;;;;;15.30;4.32;;;;;;;;;;5054319;28;20046;-42
2021/07/09 10:52:38;;;;;;;11.63;3.88;;;;;;;;;;5054242;28;20095;-42
2021/07/09 10:55:25;;;;;;;9.50;3.60;;;;;;;;;;5031853;28;20120;-42
2021/07/09 10:58:09;;;;;;;6.72;3.45;;;;;;;;;;5025221;28;20045;-43
2021/07/09 11:00:44;;;;;;;4.93;3.30;;;;;;;;;;5032014;28;20508;-43
2021/07/09 11:03:11;;;;;;;14.45;3.85;;;;;;;;;;5031934;28;20034;-42
2021/07/09 11:05:43;;;;;;;5.97;3.65;;;;;;;;;;5031944;28;20099;-42
2021/07/09 11:08:45;;;;;;;10.10;3.78;;;;;;;;;;5031648;28;20064;-42
2021/07/09 11:11:14;;;;;;;5.70;3.30;;;;;;;;;;4992376;28;20027;-42
2021/07/09 11:16:27;;;;;;;11.85;4.03;;;;;;;;;;4992130;28;20660;-42
2021/07/09 11:18:56;;;;;;;6.22;4.22;;;;;;;;;;4992366;28;20054;-42
2021/07/09 11:21:32;;;;;;;6.68;3.97;;;;;;;;;;4992329;28;20046;-42
2021/07/09 11:23:58;;;;;;;5.20;3.63;;;;;;;;;;4992307;28;20474;-42
2021/07/09 11:26:26;;;;;;;7.68;3.47;;;;;;;;;;4992141;28;20038;-42
2021/07/09 11:28:52;;;;;;;7.05;4.00;;;;;;;;;;4976077;28;20100;-42
2021/07/09 11:31:31;;;;;;;9.80;4.25;;;;;;;;;;4995142;28;20058;-42
2021/07/09 11:34:04;;;;;;;5.43;3.88;;;;;;;;;;5011871;28;20029;-42
2021/07/09 11:36:43;;;;;;;7.38;3.60;;;;;;;;;;5011603;28;20105;-42
2021/07/09 11:39:19;;;;;;;6.85;3.00;;;;;;;;;;5011711;28;20484;-42
2021/07/09 11:41:54;;;;;;;11.68;3.78;;;;;;;;;;5011717;28;20433;-42
2021/07/09 11:44:28;;;;;;;10.57;3.58;;;;;;;;;;5018591;28;20511;-42
2021/07/09 11:46:59;;;;;;;6.15;3.60;;;;;;;;;;5053365;28;20044;-42
2021/07/09 11:49:27;;;;;;;8.18;3.80;;;;;;;;;;5053328;28;20032;-42
2021/07/09 11:51:54;;;;;;;5.38;3.80;;;;;;;;;;5053762;28;20465;-42
2021/07/09 11:54:27;;;;;;;9.77;3.70;;;;;;;;;;5053251;28;20032;-42
2021/07/09 11:56:54;;;;;;;8.95;3.08;;;;;;;;;;5053108;28;20013;-42
2021/07/09 11:59:21;;;;;;;8.93;3.47;;;;;;;;;;5053145;28;20366;-42
2021/07/09 12:02:02;;;;;;;4.28;3.05;;;;;;;;;;5053567;28;20028;-42
2021/07/09 12:04:29;;;;;;;3.88;3.22;;;;;;;;;;5053163;28;20021;-42
2021/07/09 12:07:12;;;;;;;7.18;3.67;;;;;;;;;;5053053;28;20029;-42
2021/07/09 12:09:38;;;;;;;11.00;3.55;;;;;;;;;;5052934;28;20457;-42
2021/07/09 12:12:05;;;;;;;11.50;3.70;;;;;;;;;;5053110;28;20044;-42
2021/07/09 12:14:31;;;;;;;13.23;3.33;;;;;;;;;;5053109;28;20056;-42
2021/07/09 12:16:59;;;;;;;10.18;3.83;;;;;;;;;;5053058;28;20109;-42
2021/07/09 12:19:25;;;;;;;5.30;3.42;;;;;;;;;;5055572;28;20091;-42
2021/07/09 12:21:56;;;;;;;5.10;3.50;;;;;;;;;;5057410;28;20028;-45
2021/07/09 12:24:23;;;;;;;9.30;3.63;;;;;;;;;;5057078;28;20511;-42
2021/07/09 12:26:49;;;;;;;7.30;3.70;;;;;;;;;;5056917;28;20074;-42
2021/07/09 12:29:15;;;;;;;7.10;3.67;;;;;;;;;;5056800;28;20028;-44
2021/07/09 12:31:42;;;;;;;5.88;4.57;;;;;;;;;;5056818;28;20018;-42
2021/07/09 12:34:24;;;;;;;8.07;4.00;;;;;;;;;;5055439;28;20025;-42
2021/07/09 12:37:01;;;;;;;7.05;3.85;;;;;;;;;;5056838;28;20083;-42
2021/07/09 12:39:28;;;;;;;4.97;4.10;;;;;;;;;;5056598;28;20044;-43
2021/07/09 12:41:54;;;;;;;4.22;3.50;;;;;;;;;;5056781;28;20078;-42
2021/07/09 12:44:20;;;;;;;11.20;3.80;;;;;;;;;;5056786;28;20028;-42
2021/07/09 12:46:47;;;;;;;6.43;3.90;;;;;;;;;;5056468;28;20731;-42
2021/07/09 12:49:14;;;;;;;6.57;4.30;;;;;;;;;;5056751;28;20029;-43
2021/07/09 12:51:44;;;;;;;6.03;4.05;;;;;;;;;;5056652;28;20032;-43
2021/07/09 12:54:12;;;;;;;4.23;3.53;;;;;;;;;;5056523;28;20025;-43
2021/07/09 12:56:39;;;;;;;7.28;3.50;;;;;;;;;;5056350;28;20340;-42
2021/07/09 12:59:09;;;;;;;10.75;3.80;;;;;;;;;;5056089;28;20488;-42
2021/07/09 13:01:36;;;;;;;8.20;3.80;;;;;;;;;;5056257;28;20028;-43
2021/07/09 13:04:16;;;;;;;9.35;3.78;;;;;;;;;;5056175;28;20028;-42
2021/07/09 13:06:42;;;;;;;11.80;4.18;;;;;;;;;;5056329;28;20096;-43
2021/07/09 13:09:10;;;;;;;8.07;4.72;;;;;;;;;;5056222;28;20017;-42
2021/07/09 13:11:40;;;;;;;10.68;3.95;;;;;;;;;;5056090;28;20032;-42
2021/07/09 13:14:07;;;;;;;4.43;3.63;;;;;;;;;;5055832;28;20037;-43
2021/07/09 13:16:45;;;;;;;4.70;3.28;;;;;;;;;;5055988;28;20120;-43
2021/07/09 13:19:11;;;;;;;6.25;3.47;;;;;;;;;;5055982;28;20024;-43
2021/07/09 13:21:48;;;;;;;6.88;3.85;;;;;;;;;;5055807;28;20485;-43
2021/07/09 13:24:15;;;;;;;6.53;3.55;;;;;;;;;;5055782;28;20021;-42
2021/07/09 13:26:42;;;;;;;12.30;4.10;;;;;;;;;;5055613;28;20017;-42
2021/07/09 13:29:22;;;;;;;3.60;3.28;;;;;;;;;;5055279;28;20021;-43
2021/07/09 13:31:57;;;;;;;5.68;3.45;;;;;;;;;;5055232;28;20029;-43
2021/07/09 13:34:23;;;;;;;5.10;4.00;;;;;;;;;;5055522;28;20017;-43
2021/07/09 13:36:50;;;;;;;6.88;3.80;;;;;;;;;;5055500;28;20142;-43
2021/07/09 13:39:16;;;;;;;9.15;3.63;;;;;;;;;;5039217;28;20037;-41
2021/07/09 13:41:43;;;;;;;11.23;3.95;;;;;;;;;;5023851;28;20025;-41
2021/07/09 13:44:09;;;;;;;4.50;3.53;;;;;;;;;;5023080;28;20144;-41
2021/07/09 13:46:35;;;;;;;6.65;3.58;;;;;;;;;;5022889;28;20030;-40
2021/07/09 13:49:02;;;;;;;8.15;3.47;;;;;;;;;;5022719;28;20464;-40
2021/07/09 13:51:28;;;;;;;6.10;3.47;;;;;;;;;;5022907;28;20382;-41
2021/07/09 13:53:55;;;;;;;13.85;5.05;;;;;;;;;;5024452;28;20094;-42
2021/07/09 13:56:21;;;;;;;7.40;5.95;;;;;;;;;;5023048;28;20509;-41
2021/07/09 13:58:47;;;;;;;6.47;4.18;;;;;;;;;;5024312;28;20567;-41
2021/07/09 14:01:13;;;;;;;5.32;3.55;;;;;;;;;;5023471;28;20044;-41
2021/07/09 14:03:43;;;;;;;5.90;3.55;;;;;;;;;;5023275;28;20025;-41
2021/07/09 14:06:10;;;;;;;4.37;2.93;;;;;;;;;;5023003;28;20037;-41
2021/07/09 14:08:37;;;;;;;7.22;3.25;;;;;;;;;;5022916;28;20071;-41
2021/07/09 14:11:03;;;;;;;11.73;3.72;;;;;;;;;;5022455;28;20017;-41
2021/07/09 14:13:30;;;;;;;4.38;3.50;;;;;;;;;;5022713;28;20033;-41
2021/07/09 14:15:57;;;;;;;7.85;3.40;;;;;;;;;;5023678;28;20095;-41
2021/07/09 14:18:23;;;;;;;11.00;3.88;;;;;;;;;;5022787;28;20033;-42
2021/07/09 14:20:50;;;;;;;8.70;3.50;;;;;;;;;;5022657;28;20068;-42
2021/07/09 14:23:17;;;;;;;7.03;3.83;;;;;;;;;;5022706;28;20075;-43
2021/07/09 14:25:43;;;;;;;13.63;3.67;;;;;;;;;;5022661;28;20493;-42
2021/07/09 14:28:11;;;;;;;11.95;3.90;;;;;;;;;;5022803;28;20055;-43
2021/07/09 14:30:41;;;;;;;8.20;3.42;;;;;;;;;;5023588;28;20032;-42
2021/07/09 14:33:08;;;;;;;7.80;3.30;;;;;;;;;;5024257;28;20033;-40
2021/07/09 14:35:34;;;;;;;11.68;3.53;;;;;;;;;;5022476;28;20135;-42
2021/07/09 14:38:01;;;;;;;6.28;3.33;;;;;;;;;;5022347;28;20366;-41
2021/07/09 14:40:27;;;;;;;15.73;3.60;;;;;;;;;;5022369;28;20034;-41
2021/07/09 14:42:54;;;;;;;12.45;4.40;;;;;;;;;;5022059;28;20426;-41
2021/07/09 14:45:20;;;;;;;8.75;3.63;;;;;;;;;;5021885;28;20048;-42
2021/07/09 14:47:46;;;;;;;9.85;3.80;;;;;;;;;;5023410;28;20045;-41